sensor_id;sensor_type;location;lat;lon;timestamp;pressure;altitude;pressure_sealevel;temperature;humidity
5609;BME280;2826;51.354;9.588;2023-04-29T00:00:48;97650.56;;;14.06;88.91
5609;BME280;2826;51.354;9.588;2023-04-29T00:03:15;97654.09;;;14.05;89.47
5609;BME280;2826;51.354;9.588;2023-04-29T00:05:42;97656.72;;;14.05;89.00
5609;BME280;2826;51.354;9.588;2023-04-29T00:08:09;97642.09;;;14.03;89.37
5609;BME280;2826;51.354;9.588;2023-04-29T00:10:35;97653.94;;;14.08;89.40
5609;BME280;2826;51.354;9.588;2023-04-29T00:13:05;97650.56;;;14.06;89.27
5609;BME280;2826;51.354;9.588;2023-04-29T00:15:31;97649.75;;;14.06;89.16
5609;BME280;2826;51.354;9.588;2023-04-29T00:17:59;97656.63;;;14.07;89.47
5609;BME280;2826;51.354;9.588;2023-04-29T00:20:26;97653.47;;;14.02;89.89
5609;BME280;2826;51.354;9.588;2023-04-29T00:22:53;97658.97;;;13.97;90.06
5609;BME280;2826;51.354;9.588;2023-04-29T00:25:19;97646.13;;;13.94;90.42
5609;BME280;2826;51.354;9.588;2023-04-29T00:27:46;97658.31;;;13.93;90.36
5609;BME280;2826;51.354;9.588;2023-04-29T00:30:14;97659.44;;;13.89;90.87
5609;BME280;2826;51.354;9.588;2023-04-29T00:32:41;97666.53;;;13.87;90.71
5609;BME280;2826;51.354;9.588;2023-04-29T00:35:08;97600.94;;;13.51;90.45
5609;BME280;2826;51.354;9.588;2023-04-29T00:37:34;97664.91;;;13.84;90.97
5609;BME280;2826;51.354;9.588;2023-04-29T00:40:01;97677.59;;;13.76;91.83
5609;BME280;2826;51.354;9.588;2023-04-29T00:42:30;97674.63;;;13.68;92.98
5609;BME280;2826;51.354;9.588;2023-04-29T00:44:57;97682.69;;;13.63;93.10
5609;BME280;2826;51.354;9.588;2023-04-29T00:47:25;97683.00;;;13.58;93.51
5609;BME280;2826;51.354;9.588;2023-04-29T00:49:52;97674.41;;;13.56;93.40
5609;BME280;2826;51.354;9.588;2023-04-29T00:52:18;97682.41;;;13.53;94.23
5609;BME280;2826;51.354;9.588;2023-04-29T00:54:45;97679.63;;;13.56;93.75
5609;BME280;2826;51.354;9.588;2023-04-29T00:57:12;97692.75;;;13.55;93.94
5609;BME280;2826;51.354;9.588;2023-04-29T00:59:39;97689.56;;;13.50;94.13
5609;BME280;2826;51.354;9.588;2023-04-29T01:02:06;97684.38;;;13.50;94.43
5609;BME280;2826;51.354;9.588;2023-04-29T01:04:34;97680.81;;;13.51;94.53
5609;BME280;2826;51.354;9.588;2023-04-29T01:07:06;97690.34;;;13.52;94.27
5609;BME280;2826;51.354;9.588;2023-04-29T01:09:52;97683.16;;;13.55;94.27
5609;BME280;2826;51.354;9.588;2023-04-29T01:12:23;97696.38;;;13.52;94.45
5609;BME280;2826;51.354;9.588;2023-04-29T01:14:58;97703.16;;;13.55;94.67
5609;BME280;2826;51.354;9.588;2023-04-29T01:17:30;97695.44;;;13.53;94.60
5609;BME280;2826;51.354;9.588;2023-04-29T01:20:06;97693.03;;;13.50;94.93
5609;BME280;2826;51.354;9.588;2023-04-29T01:22:35;97701.50;;;13.54;94.61
5609;BME280;2826;51.354;9.588;2023-04-29T01:25:06;97693.84;;;13.51;94.67
5609;BME280;2826;51.354;9.588;2023-04-29T01:27:53;97701.56;;;13.52;94.89
5609;BME280;2826;51.354;9.588;2023-04-29T01:30:29;97696.44;;;13.51;95.31
5609;BME280;2826;51.354;9.588;2023-04-29T01:33:02;97702.44;;;13.53;95.24
5609;BME280;2826;51.354;9.588;2023-04-29T01:35:44;97704.38;;;13.49;95.32
5609;BME280;2826;51.354;9.588;2023-04-29T01:38:22;97694.44;;;13.40;95.49
5609;BME280;2826;51.354;9.588;2023-04-29T01:40:59;97705.19;;;13.50;95.74
5609;BME280;2826;51.354;9.588;2023-04-29T01:43:29;97706.88;;;13.51;95.37
5609;BME280;2826;51.354;9.588;2023-04-29T01:46:05;97709.59;;;13.49;95.66
5609;BME280;2826;51.354;9.588;2023-04-29T01:48:32;97710.41;;;13.50;95.65
5609;BME280;2826;51.354;9.588;2023-04-29T01:50:59;97711.56;;;13.44;95.68
5609;BME280;2826;51.354;9.588;2023-04-29T01:53:25;97706.19;;;13.47;95.86
5609;BME280;2826;51.354;9.588;2023-04-29T01:55:53;97707.06;;;13.48;95.51
5609;BME280;2826;51.354;9.588;2023-04-29T01:58:25;97712.59;;;13.41;96.26
5609;BME280;2826;51.354;9.588;2023-04-29T02:01:06;97713.94;;;13.49;95.96
5609;BME280;2826;51.354;9.588;2023-04-29T02:03:35;97705.28;;;13.48;95.60
5609;BME280;2826;51.354;9.588;2023-04-29T02:06:04;97713.66;;;13.53;95.62
5609;BME280;2826;51.354;9.588;2023-04-29T02:08:32;97723.09;;;13.40;95.56
5609;BME280;2826;51.354;9.588;2023-04-29T02:11:00;97721.88;;;13.31;95.78
5609;BME280;2826;51.354;9.588;2023-04-29T02:13:46;97688.53;;;13.07;95.61
5609;BME280;2826;51.354;9.588;2023-04-29T02:16:14;97723.59;;;13.16;95.28
5609;BME280;2826;51.354;9.588;2023-04-29T02:19:01;97730.88;;;13.25;94.49
5609;BME280;2826;51.354;9.588;2023-04-29T02:21:29;97722.50;;;13.20;94.39
5609;BME280;2826;51.354;9.588;2023-04-29T02:23:58;97721.44;;;13.08;94.58
5609;BME280;2826;51.354;9.588;2023-04-29T02:26:24;97734.00;;;13.16;94.51
5609;BME280;2826;51.354;9.588;2023-04-29T02:28:55;97744.09;;;13.22;93.26
5609;BME280;2826;51.354;9.588;2023-04-29T02:31:22;97736.28;;;13.22;93.52
5609;BME280;2826;51.354;9.588;2023-04-29T02:33:48;97737.56;;;13.15;93.66
5609;BME280;2826;51.354;9.588;2023-04-29T02:36:15;97740.25;;;13.13;93.31
5609;BME280;2826;51.354;9.588;2023-04-29T02:38:42;97734.09;;;13.14;93.31
5609;BME280;2826;51.354;9.588;2023-04-29T02:41:08;97740.75;;;13.04;93.56
5609;BME280;2826;51.354;9.588;2023-04-29T02:43:35;97734.72;;;13.03;93.27
5609;BME280;2826;51.354;9.588;2023-04-29T02:46:03;97742.28;;;13.08;92.93
5609;BME280;2826;51.354;9.588;2023-04-29T02:48:30;97744.88;;;13.08;93.02
5609;BME280;2826;51.354;9.588;2023-04-29T02:50:56;97744.47;;;13.00;92.74
5609;BME280;2826;51.354;9.588;2023-04-29T02:53:23;97738.16;;;13.04;92.45
5609;BME280;2826;51.354;9.588;2023-04-29T02:55:50;97740.19;;;12.99;92.19
5609;BME280;2826;51.354;9.588;2023-04-29T02:58:16;97737.22;;;13.05;92.09
5609;BME280;2826;51.354;9.588;2023-04-29T03:00:43;97733.19;;;12.99;91.97
5609;BME280;2826;51.354;9.588;2023-04-29T03:03:11;97731.19;;;13.04;91.63
5609;BME280;2826;51.354;9.588;2023-04-29T03:05:37;97739.41;;;12.97;92.00
5609;BME280;2826;51.354;9.588;2023-04-29T03:08:04;97731.88;;;12.92;91.94
5609;BME280;2826;51.354;9.588;2023-04-29T03:10:31;97732.06;;;12.89;91.41
5609;BME280;2826;51.354;9.588;2023-04-29T03:12:57;97741.13;;;12.81;91.92
5609;BME280;2826;51.354;9.588;2023-04-29T03:15:24;97732.56;;;12.79;92.08
5609;BME280;2826;51.354;9.588;2023-04-29T03:17:51;97738.03;;;12.75;92.08
5609;BME280;2826;51.354;9.588;2023-04-29T03:20:19;97736.34;;;12.74;92.33
5609;BME280;2826;51.354;9.588;2023-04-29T03:22:45;97730.91;;;12.78;91.79
5609;BME280;2826;51.354;9.588;2023-04-29T03:25:12;97737.94;;;12.76;91.56
5609;BME280;2826;51.354;9.588;2023-04-29T03:27:40;97737.13;;;12.76;91.61
5609;BME280;2826;51.354;9.588;2023-04-29T03:30:07;97736.63;;;12.69;91.68
5609;BME280;2826;51.354;9.588;2023-04-29T03:32:39;97743.84;;;12.64;91.70
5609;BME280;2826;51.354;9.588;2023-04-29T03:35:07;97752.47;;;12.64;91.97
5609;BME280;2826;51.354;9.588;2023-04-29T03:37:44;97752.91;;;12.57;92.32
5609;BME280;2826;51.354;9.588;2023-04-29T03:40:18;97748.34;;;12.60;92.41
5609;BME280;2826;51.354;9.588;2023-04-29T03:42:46;97735.50;;;12.57;92.04
5609;BME280;2826;51.354;9.588;2023-04-29T03:45:12;97746.34;;;12.65;92.29
5609;BME280;2826;51.354;9.588;2023-04-29T03:47:39;97748.03;;;12.66;91.95
5609;BME280;2826;51.354;9.588;2023-04-29T03:50:07;97746.59;;;12.61;92.37
5609;BME280;2826;51.354;9.588;2023-04-29T03:52:34;97755.41;;;12.58;92.24
5609;BME280;2826;51.354;9.588;2023-04-29T03:55:08;97745.84;;;12.59;92.29
5609;BME280;2826;51.354;9.588;2023-04-29T03:57:36;97746.75;;;12.58;92.08
5609;BME280;2826;51.354;9.588;2023-04-29T04:00:04;97755.41;;;12.58;92.39
5609;BME280;2826;51.354;9.588;2023-04-29T04:02:38;97756.44;;;12.56;92.61
5609;BME280;2826;51.354;9.588;2023-04-29T04:05:06;97760.03;;;12.53;92.55
5609;BME280;2826;51.354;9.588;2023-04-29T04:07:33;97767.72;;;12.54;93.02
5609;BME280;2826;51.354;9.588;2023-04-29T04:10:19;97758.59;;;12.47;93.26
5609;BME280;2826;51.354;9.588;2023-04-29T04:12:46;97779.22;;;12.50;93.09
5609;BME280;2826;51.354;9.588;2023-04-29T04:15:14;97777.63;;;12.48;93.38
5609;BME280;2826;51.354;9.588;2023-04-29T04:17:41;97782.31;;;12.57;92.72
5609;BME280;2826;51.354;9.588;2023-04-29T04:20:09;97787.03;;;12.50;93.54
5609;BME280;2826;51.354;9.588;2023-04-29T04:22:36;97786.13;;;12.51;92.86
5609;BME280;2826;51.354;9.588;2023-04-29T04:25:13;97781.22;;;12.45;93.11
5609;BME280;2826;51.354;9.588;2023-04-29T04:27:41;97794.66;;;12.37;93.40
5609;BME280;2826;51.354;9.588;2023-04-29T04:30:13;97789.81;;;12.47;93.17
5609;BME280;2826;51.354;9.588;2023-04-29T04:32:40;97803.88;;;12.43;93.27
5609;BME280;2826;51.354;9.588;2023-04-29T04:35:07;97808.00;;;12.47;93.35
5609;BME280;2826;51.354;9.588;2023-04-29T04:37:34;97813.56;;;12.23;93.50
5609;BME280;2826;51.354;9.588;2023-04-29T04:40:01;97807.03;;;12.16;94.02
5609;BME280;2826;51.354;9.588;2023-04-29T04:42:29;97813.38;;;12.10;93.83
5609;BME280;2826;51.354;9.588;2023-04-29T04:44:58;97812.75;;;12.23;93.72
5609;BME280;2826;51.354;9.588;2023-04-29T04:47:34;97814.50;;;12.22;93.42
5609;BME280;2826;51.354;9.588;2023-04-29T04:50:07;97819.41;;;12.11;94.02
5609;BME280;2826;51.354;9.588;2023-04-29T04:52:35;97815.38;;;12.05;95.19
5609;BME280;2826;51.354;9.588;2023-04-29T04:55:16;97818.00;;;12.03;95.33
5609;BME280;2826;51.354;9.588;2023-04-29T04:57:45;97821.47;;;12.04;95.56
5609;BME280;2826;51.354;9.588;2023-04-29T05:00:13;97782.00;;;11.80;95.55
5609;BME280;2826;51.354;9.588;2023-04-29T05:02:40;97832.41;;;12.11;95.59
5609;BME280;2826;51.354;9.588;2023-04-29T05:05:07;97832.16;;;12.15;95.16
5609;BME280;2826;51.354;9.588;2023-04-29T05:07:37;97843.41;;;12.16;94.84
5609;BME280;2826;51.354;9.588;2023-04-29T05:10:05;97844.94;;;12.20;94.56
5609;BME280;2826;51.354;9.588;2023-04-29T05:12:37;97851.81;;;12.21;94.77
5609;BME280;2826;51.354;9.588;2023-04-29T05:15:07;97854.34;;;12.23;94.31
5609;BME280;2826;51.354;9.588;2023-04-29T05:17:35;97858.16;;;12.15;94.82
5609;BME280;2826;51.354;9.588;2023-04-29T05:20:02;97859.94;;;12.15;94.52
5609;BME280;2826;51.354;9.588;2023-04-29T05:22:31;97849.53;;;12.15;94.50
5609;BME280;2826;51.354;9.588;2023-04-29T05:24:58;97854.56;;;12.18;94.91
5609;BME280;2826;51.354;9.588;2023-04-29T05:27:28;97864.72;;;12.23;94.07
5609;BME280;2826;51.354;9.588;2023-04-29T05:29:55;97856.94;;;12.23;94.13
5609;BME280;2826;51.354;9.588;2023-04-29T05:32:23;97863.66;;;12.27;94.07
5609;BME280;2826;51.354;9.588;2023-04-29T05:34:51;97866.88;;;12.14;94.06
5609;BME280;2826;51.354;9.588;2023-04-29T05:37:18;97868.34;;;12.20;93.15
5609;BME280;2826;51.354;9.588;2023-04-29T05:40:01;97881.53;;;12.15;93.87
5609;BME280;2826;51.354;9.588;2023-04-29T05:42:29;97875.06;;;12.07;93.62
5609;BME280;2826;51.354;9.588;2023-04-29T05:44:55;97880.94;;;12.10;93.83
5609;BME280;2826;51.354;9.588;2023-04-29T05:47:22;97882.47;;;12.14;93.26
5609;BME280;2826;51.354;9.588;2023-04-29T05:49:49;97888.41;;;12.17;93.45
5609;BME280;2826;51.354;9.588;2023-04-29T05:52:17;97892.78;;;12.16;93.32
5609;BME280;2826;51.354;9.588;2023-04-29T05:54:47;97893.00;;;12.11;93.39
5609;BME280;2826;51.354;9.588;2023-04-29T05:57:13;97895.69;;;12.10;93.21
5609;BME280;2826;51.354;9.588;2023-04-29T05:59:40;97892.25;;;12.09;93.39
5609;BME280;2826;51.354;9.588;2023-04-29T06:02:07;97904.13;;;12.15;93.10
5609;BME280;2826;51.354;9.588;2023-04-29T06:04:39;97903.94;;;12.18;93.03
5609;BME280;2826;51.354;9.588;2023-04-29T06:07:24;97913.59;;;12.16;93.08
5609;BME280;2826;51.354;9.588;2023-04-29T06:10:18;97914.41;;;12.17;93.15
5609;BME280;2826;51.354;9.588;2023-04-29T06:12:46;97914.66;;;12.12;92.79
5609;BME280;2826;51.354;9.588;2023-04-29T06:15:16;97917.47;;;12.07;93.09
5609;BME280;2826;51.354;9.588;2023-04-29T06:17:43;97929.47;;;12.10;92.96
5609;BME280;2826;51.354;9.588;2023-04-29T06:20:10;97932.00;;;12.11;92.87
5609;BME280;2826;51.354;9.588;2023-04-29T06:22:39;97937.19;;;12.11;93.16
5609;BME280;2826;51.354;9.588;2023-04-29T06:25:06;97934.22;;;12.01;93.40
5609;BME280;2826;51.354;9.588;2023-04-29T06:27:47;97948.34;;;11.96;93.64
5609;BME280;2826;51.354;9.588;2023-04-29T06:30:17;97945.75;;;11.96;93.93
5609;BME280;2826;51.354;9.588;2023-04-29T06:32:44;97951.53;;;11.83;94.16
5609;BME280;2826;51.354;9.588;2023-04-29T06:35:11;97953.97;;;11.86;94.32
5609;BME280;2826;51.354;9.588;2023-04-29T06:37:53;97962.47;;;11.90;93.66
5609;BME280;2826;51.354;9.588;2023-04-29T06:40:43;97968.66;;;11.87;94.18
5609;BME280;2826;51.354;9.588;2023-04-29T06:43:29;97967.88;;;11.85;94.13
5609;BME280;2826;51.354;9.588;2023-04-29T06:46:15;97973.78;;;11.89;93.93
5609;BME280;2826;51.354;9.588;2023-04-29T06:49:03;97975.66;;;11.85;94.34
5609;BME280;2826;51.354;9.588;2023-04-29T06:51:31;97976.19;;;11.92;94.25
5609;BME280;2826;51.354;9.588;2023-04-29T06:54:00;97978.97;;;11.89;93.40
5609;BME280;2826;51.354;9.588;2023-04-29T06:56:26;97988.31;;;11.93;93.12
5609;BME280;2826;51.354;9.588;2023-04-29T06:58:52;97984.84;;;11.93;93.40
5609;BME280;2826;51.354;9.588;2023-04-29T07:01:19;97993.34;;;11.96;93.32
5609;BME280;2826;51.354;9.588;2023-04-29T07:03:46;97992.50;;;11.96;93.35
5609;BME280;2826;51.354;9.588;2023-04-29T07:06:13;97990.91;;;11.93;93.42
5609;BME280;2826;51.354;9.588;2023-04-29T07:08:39;98002.72;;;11.99;93.26
5609;BME280;2826;51.354;9.588;2023-04-29T07:11:07;97997.22;;;11.87;93.97
5609;BME280;2826;51.354;9.588;2023-04-29T07:13:34;98004.44;;;12.00;93.97
5609;BME280;2826;51.354;9.588;2023-04-29T07:16:01;98008.50;;;12.06;93.76
5609;BME280;2826;51.354;9.588;2023-04-29T07:18:27;98009.75;;;12.16;93.61
5609;BME280;2826;51.354;9.588;2023-04-29T07:20:59;98018.03;;;12.24;93.20
5609;BME280;2826;51.354;9.588;2023-04-29T07:23:26;98012.53;;;12.31;93.21
5609;BME280;2826;51.354;9.588;2023-04-29T07:25:53;98025.19;;;12.37;92.90
5609;BME280;2826;51.354;9.588;2023-04-29T07:28:21;98036.53;;;12.36;92.71
5609;BME280;2826;51.354;9.588;2023-04-29T07:30:51;98035.38;;;12.41;93.23
5609;BME280;2826;51.354;9.588;2023-04-29T07:33:18;98041.19;;;12.47;92.87
5609;BME280;2826;51.354;9.588;2023-04-29T07:35:44;98046.19;;;12.51;93.10
5609;BME280;2826;51.354;9.588;2023-04-29T07:38:11;98046.66;;;12.60;92.31
5609;BME280;2826;51.354;9.588;2023-04-29T07:40:40;98040.59;;;12.59;91.78
5609;BME280;2826;51.354;9.588;2023-04-29T07:43:07;98045.41;;;12.67;91.79
5609;BME280;2826;51.354;9.588;2023-04-29T07:45:35;98061.00;;;12.49;92.75
5609;BME280;2826;51.354;9.588;2023-04-29T07:48:01;98061.19;;;12.46;93.46
5609;BME280;2826;51.354;9.588;2023-04-29T07:50:29;98064.16;;;12.56;93.20
5609;BME280;2826;51.354;9.588;2023-04-29T07:52:56;98064.00;;;12.59;92.75
5609;BME280;2826;51.354;9.588;2023-04-29T07:55:24;98072.56;;;12.61;92.11
5609;BME280;2826;51.354;9.588;2023-04-29T07:57:54;98073.56;;;12.59;91.69
5609;BME280;2826;51.354;9.588;2023-04-29T08:00:21;98076.34;;;12.56;91.71
5609;BME280;2826;51.354;9.588;2023-04-29T08:02:50;98073.03;;;12.52;91.95
5609;BME280;2826;51.354;9.588;2023-04-29T08:05:17;98083.22;;;12.57;91.38
5609;BME280;2826;51.354;9.588;2023-04-29T08:07:46;98086.63;;;12.57;91.31
5609;BME280;2826;51.354;9.588;2023-04-29T08:10:13;98087.50;;;12.58;90.85
5609;BME280;2826;51.354;9.588;2023-04-29T08:12:40;98094.53;;;12.56;90.57
5609;BME280;2826;51.354;9.588;2023-04-29T08:15:07;98094.59;;;12.54;90.87
5609;BME280;2826;51.354;9.588;2023-04-29T08:17:34;98093.06;;;12.50;90.57
5609;BME280;2826;51.354;9.588;2023-04-29T08:20:02;98098.13;;;12.53;91.18
5609;BME280;2826;51.354;9.588;2023-04-29T08:22:29;98100.63;;;12.54;90.67
5609;BME280;2826;51.354;9.588;2023-04-29T08:24:55;98106.28;;;12.45;90.52
5609;BME280;2826;51.354;9.588;2023-04-29T08:27:22;98106.22;;;12.47;91.01
5609;BME280;2826;51.354;9.588;2023-04-29T08:29:49;98106.63;;;12.57;90.90
5609;BME280;2826;51.354;9.588;2023-04-29T08:32:15;98098.44;;;12.64;90.59
5609;BME280;2826;51.354;9.588;2023-04-29T08:34:42;98110.31;;;12.70;90.13
5609;BME280;2826;51.354;9.588;2023-04-29T08:37:10;98117.25;;;12.70;89.91
5609;BME280;2826;51.354;9.588;2023-04-29T08:39:37;98119.63;;;12.74;89.62
5609;BME280;2826;51.354;9.588;2023-04-29T08:42:07;98116.34;;;12.71;89.71
5609;BME280;2826;51.354;9.588;2023-04-29T08:44:34;98118.09;;;12.70;89.64
5609;BME280;2826;51.354;9.588;2023-04-29T08:47:01;98117.31;;;12.68;89.11
5609;BME280;2826;51.354;9.588;2023-04-29T08:49:27;98118.50;;;12.62;89.04
5609;BME280;2826;51.354;9.588;2023-04-29T08:51:54;98126.66;;;12.54;89.41
5609;BME280;2826;51.354;9.588;2023-04-29T08:54:22;98131.56;;;12.61;89.01
5609;BME280;2826;51.354;9.588;2023-04-29T08:56:50;98134.78;;;12.66;89.19
5609;BME280;2826;51.354;9.588;2023-04-29T08:59:17;98125.53;;;12.78;88.22
5609;BME280;2826;51.354;9.588;2023-04-29T09:01:46;98132.13;;;12.85;87.92
5609;BME280;2826;51.354;9.588;2023-04-29T09:04:23;98103.44;;;12.87;87.18
5609;BME280;2826;51.354;9.588;2023-04-29T09:06:51;98134.78;;;13.19;86.71
5609;BME280;2826;51.354;9.588;2023-04-29T09:09:19;98137.00;;;13.27;85.76
5609;BME280;2826;51.354;9.588;2023-04-29T09:11:47;98127.69;;;13.39;86.19
5609;BME280;2826;51.354;9.588;2023-04-29T09:14:14;98134.44;;;13.43;85.15
5609;BME280;2826;51.354;9.588;2023-04-29T09:16:41;98129.84;;;13.30;84.32
5609;BME280;2826;51.354;9.588;2023-04-29T09:19:28;98144.94;;;13.24;83.23
5609;BME280;2826;51.354;9.588;2023-04-29T09:21:55;98140.59;;;13.24;83.18
5609;BME280;2826;51.354;9.588;2023-04-29T09:24:24;98147.47;;;13.25;84.15
5609;BME280;2826;51.354;9.588;2023-04-29T09:26:53;98126.38;;;13.14;84.19
5609;BME280;2826;51.354;9.588;2023-04-29T09:29:20;98152.16;;;13.18;83.35
5609;BME280;2826;51.354;9.588;2023-04-29T09:31:49;98064.41;;;12.51;84.00
5609;BME280;2826;51.354;9.588;2023-04-29T09:34:29;98161.28;;;13.10;84.49
5609;BME280;2826;51.354;9.588;2023-04-29T09:36:56;98162.03;;;13.12;83.99
5609;BME280;2826;51.354;9.588;2023-04-29T09:39:23;98166.25;;;13.14;84.20
5609;BME280;2826;51.354;9.588;2023-04-29T09:41:59;98172.22;;;13.16;83.53
5609;BME280;2826;51.354;9.588;2023-04-29T09:44:28;98170.56;;;13.15;84.31
5609;BME280;2826;51.354;9.588;2023-04-29T09:46:57;98174.38;;;13.08;84.70
5609;BME280;2826;51.354;9.588;2023-04-29T09:49:27;98187.13;;;12.95;83.75
5609;BME280;2826;51.354;9.588;2023-04-29T09:51:55;98185.00;;;13.03;84.64
5609;BME280;2826;51.354;9.588;2023-04-29T09:54:23;98193.13;;;12.97;82.40
5609;BME280;2826;51.354;9.588;2023-04-29T09:56:52;98198.09;;;13.02;82.11
5609;BME280;2826;51.354;9.588;2023-04-29T09:59:20;98193.59;;;13.23;81.67
5609;BME280;2826;51.354;9.588;2023-04-29T10:01:48;98193.66;;;13.39;80.76
5609;BME280;2826;51.354;9.588;2023-04-29T10:04:16;98176.59;;;13.51;80.34
5609;BME280;2826;51.354;9.588;2023-04-29T10:06:44;98201.41;;;13.58;79.44
5609;BME280;2826;51.354;9.588;2023-04-29T10:09:12;98198.94;;;13.73;79.43
5609;BME280;2826;51.354;9.588;2023-04-29T10:11:41;98194.81;;;13.85;78.86
5609;BME280;2826;51.354;9.588;2023-04-29T10:14:11;98199.25;;;14.01;77.84
5609;BME280;2826;51.354;9.588;2023-04-29T10:16:44;98197.66;;;14.14;77.89
5609;BME280;2826;51.354;9.588;2023-04-29T10:19:16;98183.84;;;14.12;77.29
5609;BME280;2826;51.354;9.588;2023-04-29T10:21:47;98197.31;;;14.20;75.64
5609;BME280;2826;51.354;9.588;2023-04-29T10:24:16;98201.59;;;14.21;75.54
5609;BME280;2826;51.354;9.588;2023-04-29T10:26:43;98209.50;;;14.20;75.53
5609;BME280;2826;51.354;9.588;2023-04-29T10:29:12;98205.56;;;14.29;75.86
5609;BME280;2826;51.354;9.588;2023-04-29T10:31:42;98205.31;;;14.33;74.53
5609;BME280;2826;51.354;9.588;2023-04-29T10:34:10;98205.13;;;14.20;73.09
5609;BME280;2826;51.354;9.588;2023-04-29T10:36:38;98217.44;;;14.18;73.40
5609;BME280;2826;51.354;9.588;2023-04-29T10:39:10;98221.44;;;14.08;73.93
5609;BME280;2826;51.354;9.588;2023-04-29T10:41:42;98227.56;;;13.91;74.22
5609;BME280;2826;51.354;9.588;2023-04-29T10:44:11;98202.69;;;13.67;74.81
5609;BME280;2826;51.354;9.588;2023-04-29T10:46:37;98228.13;;;13.80;75.47
5609;BME280;2826;51.354;9.588;2023-04-29T10:49:06;98236.94;;;13.77;75.50
5609;BME280;2826;51.354;9.588;2023-04-29T10:51:33;98233.56;;;13.75;74.99
5609;BME280;2826;51.354;9.588;2023-04-29T10:54:02;98228.25;;;13.77;75.46
5609;BME280;2826;51.354;9.588;2023-04-29T10:56:37;98226.88;;;13.87;75.36
5609;BME280;2826;51.354;9.588;2023-04-29T10:59:04;98205.25;;;13.85;75.12
5609;BME280;2826;51.354;9.588;2023-04-29T11:01:42;98220.69;;;14.06;73.73
5609;BME280;2826;51.354;9.588;2023-04-29T11:04:11;98229.88;;;14.29;74.21
5609;BME280;2826;51.354;9.588;2023-04-29T11:06:40;98229.28;;;14.40;74.74
5609;BME280;2826;51.354;9.588;2023-04-29T11:09:09;98220.56;;;14.41;72.93
5609;BME280;2826;51.354;9.588;2023-04-29T11:11:43;98237.28;;;14.69;72.43
5609;BME280;2826;51.354;9.588;2023-04-29T11:14:12;98243.94;;;14.75;71.64
5609;BME280;2826;51.354;9.588;2023-04-29T11:16:46;98227.69;;;14.54;70.26
5609;BME280;2826;51.354;9.588;2023-04-29T11:19:15;98251.94;;;14.56;70.49
5609;BME280;2826;51.354;9.588;2023-04-29T11:21:44;98257.47;;;14.49;71.55
5609;BME280;2826;51.354;9.588;2023-04-29T11:24:11;98263.38;;;14.53;70.59
5609;BME280;2826;51.354;9.588;2023-04-29T11:26:40;98250.44;;;14.52;70.36
5609;BME280;2826;51.354;9.588;2023-04-29T11:29:07;98262.53;;;14.53;71.14
5609;BME280;2826;51.354;9.588;2023-04-29T11:31:35;98244.78;;;14.43;69.73
5609;BME280;2826;51.354;9.588;2023-04-29T11:34:03;98260.78;;;14.37;70.00
5609;BME280;2826;51.354;9.588;2023-04-29T11:36:32;98260.66;;;14.22;70.80
5609;BME280;2826;51.354;9.588;2023-04-29T11:38:59;98268.72;;;14.18;71.94
5609;BME280;2826;51.354;9.588;2023-04-29T11:41:26;98267.13;;;14.15;71.92
5609;BME280;2826;51.354;9.588;2023-04-29T11:43:56;98257.78;;;14.11;69.70
5609;BME280;2826;51.354;9.588;2023-04-29T11:46:23;98272.25;;;14.01;68.29
5609;BME280;2826;51.354;9.588;2023-04-29T11:48:50;98274.91;;;13.99;68.17
5609;BME280;2826;51.354;9.588;2023-04-29T11:51:17;98271.97;;;14.05;68.65
5609;BME280;2826;51.354;9.588;2023-04-29T11:53:46;98280.31;;;14.12;68.97
5609;BME280;2826;51.354;9.588;2023-04-29T11:56:14;98285.78;;;14.07;68.08
5609;BME280;2826;51.354;9.588;2023-04-29T11:58:41;98289.31;;;14.06;67.62
5609;BME280;2826;51.354;9.588;2023-04-29T12:01:08;98291.69;;;14.11;66.47
5609;BME280;2826;51.354;9.588;2023-04-29T12:03:35;98289.06;;;14.11;66.33
5609;BME280;2826;51.354;9.588;2023-04-29T12:06:02;98297.47;;;14.00;66.36
5609;BME280;2826;51.354;9.588;2023-04-29T12:08:29;98297.78;;;13.94;66.49
5609;BME280;2826;51.354;9.588;2023-04-29T12:10:59;98292.72;;;13.91;66.44
5609;BME280;2826;51.354;9.588;2023-04-29T12:13:28;98273.50;;;13.76;67.24
5609;BME280;2826;51.354;9.588;2023-04-29T12:15:55;98287.38;;;13.76;67.05
5609;BME280;2826;51.354;9.588;2023-04-29T12:18:23;98297.63;;;13.79;67.53
5609;BME280;2826;51.354;9.588;2023-04-29T12:20:50;98290.81;;;13.77;68.41
5609;BME280;2826;51.354;9.588;2023-04-29T12:23:18;98295.09;;;13.78;69.13
5609;BME280;2826;51.354;9.588;2023-04-29T12:25:48;98294.94;;;13.81;68.49
5609;BME280;2826;51.354;9.588;2023-04-29T12:28:17;98300.00;;;13.84;68.33
5609;BME280;2826;51.354;9.588;2023-04-29T12:30:43;98300.63;;;13.89;68.85
5609;BME280;2826;51.354;9.588;2023-04-29T12:33:15;98314.09;;;13.97;68.96
5609;BME280;2826;51.354;9.588;2023-04-29T12:35:42;98300.00;;;14.02;68.80
5609;BME280;2826;51.354;9.588;2023-04-29T12:38:08;98306.88;;;14.03;68.63
5609;BME280;2826;51.354;9.588;2023-04-29T12:40:35;98303.19;;;14.07;68.08
5609;BME280;2826;51.354;9.588;2023-04-29T12:43:06;98311.53;;;14.14;67.18
5609;BME280;2826;51.354;9.588;2023-04-29T12:45:34;98313.44;;;14.28;67.17
5609;BME280;2826;51.354;9.588;2023-04-29T12:48:01;98296.84;;;14.29;66.66
5609;BME280;2826;51.354;9.588;2023-04-29T12:50:29;98307.31;;;14.45;66.53
5609;BME280;2826;51.354;9.588;2023-04-29T12:52:57;98301.75;;;14.51;65.88
5609;BME280;2826;51.354;9.588;2023-04-29T12:55:24;98303.97;;;14.59;65.17
5609;BME280;2826;51.354;9.588;2023-04-29T12:57:51;98311.19;;;14.54;64.31
5609;BME280;2826;51.354;9.588;2023-04-29T13:00:29;98309.44;;;14.54;63.83
5609;BME280;2826;51.354;9.588;2023-04-29T13:02:57;98306.47;;;14.60;64.69
5609;BME280;2826;51.354;9.588;2023-04-29T13:05:24;98314.00;;;14.67;64.72
5609;BME280;2826;51.354;9.588;2023-04-29T13:07:51;98316.44;;;14.70;65.29
5609;BME280;2826;51.354;9.588;2023-04-29T13:10:17;98313.84;;;14.70;64.04
5609;BME280;2826;51.354;9.588;2023-04-29T13:12:44;98310.78;;;14.61;64.89
5609;BME280;2826;51.354;9.588;2023-04-29T13:15:11;98313.31;;;14.63;65.02
5609;BME280;2826;51.354;9.588;2023-04-29T13:17:38;98308.25;;;14.60;65.75
5609;BME280;2826;51.354;9.588;2023-04-29T13:20:07;98317.59;;;14.48;66.06
5609;BME280;2826;51.354;9.588;2023-04-29T13:22:36;98308.09;;;14.29;66.04
5609;BME280;2826;51.354;9.588;2023-04-29T13:25:03;98333.28;;;14.30;65.91
5609;BME280;2826;51.354;9.588;2023-04-29T13:27:30;98329.31;;;14.23;65.33
5609;BME280;2826;51.354;9.588;2023-04-29T13:29:57;98327.94;;;14.16;65.92
5609;BME280;2826;51.354;9.588;2023-04-29T13:32:23;98328.78;;;14.16;66.70